createdAt,value
2023-02-18T00:01:12.677Z,7.73
2023-02-18T00:03:41.597Z,5.20
2023-02-18T00:06:19.742Z,4.93
2023-02-18T00:08:47.893Z,4.17
2023-02-18T00:11:15.883Z,3.83
2023-02-18T00:13:43.414Z,3.53
2023-02-18T00:16:12.181Z,3.83
2023-02-18T00:18:40.125Z,4.63
2023-02-18T00:21:08.399Z,5.33
2023-02-18T00:23:36.073Z,4.90
2023-02-18T00:26:07.982Z,5.73
2023-02-18T00:28:35.670Z,6.33
2023-02-18T00:31:10.631Z,5.00
2023-02-18T00:33:38.514Z,4.30
2023-02-18T00:36:07.996Z,4.63
2023-02-18T00:38:36.625Z,3.83
2023-02-18T00:41:04.640Z,5.07
2023-02-18T00:43:32.151Z,4.93
2023-02-18T00:45:59.637Z,4.23
2023-02-18T00:48:27.127Z,4.27
2023-02-18T00:50:54.549Z,3.70
2023-02-18T00:53:24.752Z,3.63
2023-02-18T00:55:52.265Z,2.83
2023-02-18T00:58:19.712Z,3.80
2023-02-18T01:00:47.347Z,2.80
2023-02-18T01:03:15.624Z,2.17
2023-02-18T01:05:43.627Z,2.33
2023-02-18T01:08:11.683Z,1.70
2023-02-18T01:10:42.791Z,1.57
2023-02-18T01:13:12.109Z,1.80
2023-02-18T01:15:40.506Z,1.87
2023-02-18T01:18:08.112Z,1.80
2023-02-18T01:20:39.154Z,1.53
2023-02-18T01:23:08.574Z,2.63
2023-02-18T01:25:36.344Z,1.10
2023-02-18T01:28:04.037Z,1.20
2023-02-18T01:30:31.634Z,1.77
2023-02-18T01:32:59.225Z,1.10
2023-02-18T01:35:27.263Z,1.33
2023-02-18T01:37:55.730Z,1.97
2023-02-18T01:40:24.454Z,1.10
2023-02-18T01:42:51.975Z,1.53
2023-02-18T01:45:44.768Z,1.90
2023-02-18T01:48:24.416Z,0.87
2023-02-18T01:51:16.664Z,0.80
2023-02-18T01:53:53.605Z,1.33
2023-02-18T01:56:25.272Z,0.80
2023-02-18T01:58:55.177Z,0.63
2023-02-18T02:01:22.693Z,1.33
2023-02-18T02:03:50.143Z,1.90
2023-02-18T02:06:18.996Z,1.50
2023-02-18T02:08:51.548Z,1.23
2023-02-18T02:11:39.280Z,1.20
2023-02-18T02:14:30.007Z,1.20
2023-02-18T02:17:12.244Z,0.70
2023-02-18T02:20:00.902Z,0.70
2023-02-18T02:23:03.878Z,3.67
2023-02-18T02:25:50.187Z,1.20
2023-02-18T02:28:36.181Z,1.50
2023-02-18T02:31:24.779Z,2.17
2023-02-18T02:34:24.275Z,1.43
2023-02-18T02:36:57.719Z,1.77
2023-02-18T02:42:38.658Z,1.80
2023-02-18T02:48:15.157Z,2.77
2023-02-18T02:50:56.737Z,2.80
2023-02-18T02:53:26.673Z,3.63
2023-02-18T02:55:56.277Z,3.23
2023-02-18T02:58:25.365Z,4.00
2023-02-18T03:01:21.043Z,3.00
2023-02-18T03:04:19.260Z,4.70
2023-02-18T03:07:08.478Z,4.20
2023-02-18T03:09:59.012Z,7.20
2023-02-18T03:12:31.164Z,5.90
2023-02-18T03:15:25.491Z,5.30
2023-02-18T03:18:04.080Z,10.07
2023-02-18T03:20:44.274Z,8.43
2023-02-18T03:23:17.452Z,9.83
2023-02-18T03:25:45.181Z,8.27
2023-02-18T03:28:16.082Z,8.43
2023-02-18T03:30:46.998Z,7.27
2023-02-18T03:33:16.502Z,10.70
2023-02-18T03:35:45.374Z,13.13
2023-02-18T03:38:25.146Z,11.77
2023-02-18T03:40:52.810Z,12.80
2023-02-18T03:43:20.235Z,11.27
2023-02-18T03:45:47.818Z,11.77
2023-02-18T03:48:15.249Z,11.57
2023-02-18T03:50:42.766Z,14.40
2023-02-18T03:53:10.237Z,12.90
2023-02-18T03:55:38.028Z,10.07
2023-02-18T03:58:05.490Z,14.27
2023-02-18T04:00:33.182Z,8.73
2023-02-18T04:03:00.652Z,11.93
2023-02-18T04:05:28.735Z,12.10
2023-02-18T04:07:56.157Z,10.77
2023-02-18T04:10:23.641Z,12.03
2023-02-18T04:12:51.096Z,11.67
2023-02-18T04:15:18.670Z,9.30
2023-02-18T04:17:46.059Z,10.97
2023-02-18T04:20:13.761Z,7.67
2023-02-18T04:22:41.179Z,15.53
2023-02-18T04:25:08.894Z,9.43
2023-02-18T04:27:36.470Z,26.53
2023-02-18T04:30:04.884Z,10.53
2023-02-18T04:32:32.821Z,17.07
2023-02-18T04:35:00.470Z,15.90
2023-02-18T04:37:27.940Z,12.33
2023-02-18T04:39:55.378Z,12.43
2023-02-18T04:42:23.487Z,10.77
2023-02-18T04:44:50.931Z,8.87
2023-02-18T04:47:18.444Z,12.23
2023-02-18T04:49:45.935Z,9.03
2023-02-18T04:52:13.372Z,11.60
2023-02-18T04:54:40.829Z,11.10
2023-02-18T04:57:08.249Z,9.80
2023-02-18T04:59:35.713Z,13.50
2023-02-18T05:02:03.269Z,11.07
2023-02-18T05:04:30.861Z,11.73
2023-02-18T05:06:58.427Z,8.40
2023-02-18T05:09:25.952Z,11.23
2023-02-18T05:11:53.423Z,12.40
2023-02-18T05:14:20.930Z,12.10
2023-02-18T05:16:48.388Z,12.00
2023-02-18T05:19:16.542Z,11.90
2023-02-18T05:21:44.203Z,11.40
2023-02-18T05:24:11.724Z,12.67
2023-02-18T05:26:39.172Z,14.37
2023-02-18T05:29:06.735Z,11.67
2023-02-18T05:31:34.242Z,10.37
2023-02-18T05:34:01.757Z,11.10
2023-02-18T05:36:29.204Z,11.40
2023-02-18T05:38:56.721Z,13.53
2023-02-18T05:41:24.181Z,10.07
2023-02-18T05:44:10.514Z,11.37
2023-02-18T05:46:38.014Z,10.23
2023-02-18T05:49:05.536Z,11.17
2023-02-18T05:51:33.299Z,14.03
2023-02-18T05:54:00.750Z,12.90
2023-02-18T05:56:28.237Z,12.53
2023-02-18T05:58:55.706Z,8.70
2023-02-18T06:01:23.172Z,10.57
2023-02-18T06:03:50.614Z,8.67
2023-02-18T06:06:18.158Z,9.50
2023-02-18T06:08:45.615Z,9.43
2023-02-18T06:11:13.097Z,15.93
2023-02-18T06:13:40.520Z,11.63
2023-02-18T06:16:08.358Z,9.00
2023-02-18T06:18:36.008Z,9.57
2023-02-18T06:21:03.492Z,12.10
2023-02-18T06:23:30.933Z,14.07
2023-02-18T06:25:58.452Z,9.60
2023-02-18T06:28:25.888Z,9.00
2023-02-18T06:30:53.357Z,9.13
2023-02-18T06:33:20.813Z,10.23
2023-02-18T06:35:58.677Z,8.20
2023-02-18T06:38:26.125Z,12.37
2023-02-18T06:40:53.682Z,13.67
2023-02-18T06:43:21.694Z,11.70
2023-02-18T06:45:49.152Z,10.97
2023-02-18T06:48:17.067Z,12.93
2023-02-18T06:50:45.104Z,9.77
2023-02-18T06:53:13.293Z,11.20
2023-02-18T06:55:42.682Z,16.27
2023-02-18T06:58:11.233Z,11.07
2023-02-18T07:00:38.760Z,13.93
2023-02-18T07:03:06.520Z,10.30
2023-02-18T07:05:34.139Z,11.93
2023-02-18T07:08:01.813Z,10.57
2023-02-18T07:10:29.289Z,10.43
2023-02-18T07:12:56.800Z,15.00
2023-02-18T07:15:24.522Z,18.27
2023-02-18T07:17:52.597Z,15.20
2023-02-18T07:20:20.485Z,11.93
2023-02-18T07:22:49.835Z,11.70
2023-02-18T07:25:17.650Z,11.90
2023-02-18T07:27:45.439Z,10.27
2023-02-18T07:30:13.172Z,11.47
2023-02-18T07:32:41.085Z,10.77
2023-02-18T07:35:08.776Z,11.83
2023-02-18T07:37:36.281Z,10.20
2023-02-18T07:40:03.954Z,15.00
2023-02-18T07:42:31.445Z,19.07
2023-02-18T07:44:59.582Z,14.83
2023-02-18T07:47:27.069Z,8.50
2023-02-18T07:49:54.520Z,15.50
2023-02-18T07:52:22.018Z,9.63
2023-02-18T07:54:49.787Z,10.47
2023-02-18T07:57:17.255Z,7.37
2023-02-18T07:59:44.668Z,14.17
2023-02-18T08:02:18.842Z,12.63
2023-02-18T08:04:46.390Z,13.20
2023-02-18T08:07:15.046Z,8.17
2023-02-18T08:09:43.087Z,10.77
2023-02-18T08:12:10.529Z,8.60
2023-02-18T08:14:38.028Z,8.13
2023-02-18T08:17:05.528Z,8.03
2023-02-18T08:19:33.099Z,8.73
2023-02-18T08:22:02.832Z,9.10
2023-02-18T08:24:30.438Z,8.83
2023-02-18T08:27:01.205Z,8.73
2023-02-18T08:29:29.527Z,9.70
2023-02-18T08:31:59.924Z,10.93
2023-02-18T08:34:27.512Z,9.47
2023-02-18T08:36:54.981Z,9.30
2023-02-18T08:39:22.666Z,13.27
2023-02-18T08:41:50.094Z,9.63
2023-02-18T08:44:17.609Z,11.03
2023-02-18T08:46:46.748Z,11.50
2023-02-18T08:49:14.348Z,10.37
2023-02-18T08:51:41.810Z,10.30
2023-02-18T08:54:09.455Z,9.70
2023-02-18T08:56:36.885Z,9.93
2023-02-18T08:59:04.329Z,8.60
2023-02-18T09:01:31.951Z,7.67
2023-02-18T09:03:59.845Z,8.33
2023-02-18T09:06:27.483Z,11.67
2023-02-18T09:08:55.036Z,9.67
2023-02-18T09:11:22.537Z,9.57
2023-02-18T09:13:50.009Z,7.00
2023-02-18T09:16:18.571Z,7.83
2023-02-18T09:18:46.570Z,7.90
2023-02-18T09:21:15.906Z,10.80
2023-02-18T09:23:43.907Z,8.57
2023-02-18T09:26:14.390Z,9.57
2023-02-18T09:28:42.064Z,12.03
2023-02-18T09:31:13.959Z,7.67
2023-02-18T09:33:44.250Z,9.10
2023-02-18T09:36:12.909Z,10.47
2023-02-18T09:38:40.421Z,9.27
2023-02-18T09:41:10.050Z,9.07
2023-02-18T09:43:42.889Z,10.87
2023-02-18T09:46:21.012Z,9.87
2023-02-18T09:48:49.013Z,9.20
2023-02-18T09:51:17.119Z,8.30
2023-02-18T09:53:45.367Z,10.07
2023-02-18T09:56:18.521Z,9.57
2023-02-18T09:58:47.900Z,12.57
2023-02-18T10:01:18.394Z,9.03
2023-02-18T10:03:46.057Z,8.27
2023-02-18T10:06:31.782Z,7.33
2023-02-18T10:09:01.174Z,9.27
2023-02-18T10:11:33.065Z,7.93
2023-02-18T10:14:01.717Z,8.33
2023-02-18T10:16:29.400Z,9.40
2023-02-18T10:18:58.517Z,12.10
2023-02-18T10:21:28.025Z,8.27
2023-02-18T10:24:11.192Z,10.63
2023-02-18T10:26:39.250Z,7.07
2023-02-18T10:29:14.649Z,9.13
2023-02-18T10:31:45.059Z,9.47
2023-02-18T10:34:25.465Z,11.20
2023-02-18T10:36:56.839Z,10.00
2023-02-18T10:39:44.669Z,7.77
2023-02-18T10:42:30.672Z,5.00
2023-02-18T10:45:18.348Z,7.77
2023-02-18T10:48:04.690Z,9.77
2023-02-18T10:50:38.334Z,7.50
2023-02-18T10:53:16.969Z,7.97
2023-02-18T10:55:49.561Z,10.57
2023-02-18T10:58:46.503Z,5.43
2023-02-18T11:01:15.926Z,6.67
2023-02-18T11:03:47.371Z,7.40
2023-02-18T11:06:23.863Z,3.73
2023-02-18T11:08:51.742Z,4.53
2023-02-18T11:11:23.819Z,4.87
2023-02-18T11:13:55.788Z,5.80
2023-02-18T11:16:25.250Z,2.37
2023-02-18T11:18:52.779Z,4.70
2023-02-18T11:21:22.738Z,1.70
2023-02-18T11:23:54.594Z,2.03
2023-02-18T11:26:27.591Z,5.53
2023-02-18T11:28:59.052Z,2.90
2023-02-18T11:31:27.719Z,2.10
2023-02-18T11:34:00.241Z,1.80
2023-02-18T11:36:32.035Z,1.73
2023-02-18T11:39:00.610Z,1.60
2023-02-18T11:41:45.075Z,1.23
2023-02-18T11:44:33.112Z,1.77
2023-02-18T11:47:05.582Z,2.07
2023-02-18T11:49:37.224Z,1.83
2023-02-18T11:52:27.816Z,0.80
2023-02-18T11:55:09.163Z,1.77
2023-02-18T11:57:39.021Z,0.50
2023-02-18T12:00:16.229Z,1.03
2023-02-18T12:02:43.851Z,0.87
2023-02-18T12:05:19.644Z,2.17
2023-02-18T12:08:16.554Z,0.87
2023-02-18T12:10:47.860Z,1.17
2023-02-18T12:13:36.616Z,1.40
2023-02-18T12:16:25.107Z,3.03
2023-02-18T12:19:15.828Z,0.70
2023-02-18T12:22:01.658Z,0.50
2023-02-18T12:25:04.322Z,0.93
2023-02-18T12:27:41.989Z,1.27
2023-02-18T12:30:48.095Z,2.30
2023-02-18T12:33:37.107Z,0.70
2023-02-18T12:36:29.920Z,0.40
2023-02-18T12:39:03.990Z,1.00
2023-02-18T12:50:25.766Z,1.50
2023-02-18T12:58:45.245Z,0.40
2023-02-18T13:01:35.340Z,0.77
2023-02-18T13:04:11.810Z,1.80
2023-02-18T13:07:08.275Z,1.37
2023-02-18T13:09:50.742Z,0.67
2023-02-18T13:12:38.430Z,1.33
2023-02-18T13:15:38.430Z,0.60
2023-02-18T13:18:10.010Z,0.43
2023-02-18T13:20:45.995Z,0.50
2023-02-18T13:23:20.569Z,1.60
2023-02-18T13:25:50.082Z,0.83
2023-02-18T13:28:30.263Z,1.60
2023-02-18T13:31:18.021Z,1.07
2023-02-18T13:34:07.565Z,0.70
2023-02-18T13:36:49.881Z,1.37
2023-02-18T13:39:20.587Z,0.87
2023-02-18T13:41:49.240Z,2.00
2023-02-18T13:47:38.321Z,1.00
2023-02-18T13:50:26.027Z,0.80
2023-02-18T13:53:28.902Z,0.67
2023-02-18T13:55:58.521Z,0.80
2023-02-18T13:58:49.001Z,2.30
2023-02-18T14:01:37.549Z,0.60
2023-02-18T14:04:05.313Z,0.60
2023-02-18T14:06:38.983Z,1.00
2023-02-18T14:09:39.587Z,1.17
2023-02-18T14:12:38.644Z,2.53
2023-02-18T14:15:26.485Z,1.17
2023-02-18T14:18:13.108Z,1.03
2023-02-18T14:20:52.127Z,2.60
2023-02-18T14:26:25.308Z,2.93
2023-02-18T14:29:03.460Z,0.60
2023-02-18T14:31:35.363Z,1.13
2023-02-18T14:34:35.499Z,0.70
2023-02-18T14:37:17.040Z,0.90
2023-02-18T14:40:08.909Z,0.77
2023-02-18T14:42:44.837Z,0.60
2023-02-18T14:45:31.398Z,1.20
2023-02-18T14:48:14.304Z,1.20
2023-02-18T14:50:43.347Z,0.67
2023-02-18T14:53:18.687Z,0.80
2023-02-18T14:55:47.919Z,1.00
2023-02-18T14:58:48.100Z,0.80
2023-02-18T15:01:32.559Z,9.20
2023-02-18T15:04:01.923Z,1.80
2023-02-18T15:06:33.639Z,1.57
2023-02-18T15:09:01.794Z,2.50
2023-02-18T15:11:37.258Z,1.17
2023-02-18T15:14:09.950Z,1.27
2023-02-18T15:16:37.535Z,1.50
2023-02-18T15:19:06.682Z,1.77
2023-02-18T15:21:40.097Z,1.70
2023-02-18T15:24:34.104Z,2.10
2023-02-18T15:27:22.174Z,1.60
2023-02-18T15:29:50.741Z,0.83
2023-02-18T15:32:22.746Z,1.17
2023-02-18T15:34:54.251Z,1.17
2023-02-18T15:37:21.774Z,1.40
2023-02-18T15:39:49.274Z,2.37
2023-02-18T15:42:28.201Z,0.93
2023-02-18T15:45:19.031Z,1.90
2023-02-18T15:47:49.894Z,1.70
2023-02-18T15:50:43.469Z,1.43
2023-02-18T15:53:15.676Z,2.47
2023-02-18T15:55:44.537Z,1.40
2023-02-18T15:58:18.042Z,1.43
2023-02-18T16:00:56.046Z,2.50
2023-02-18T16:03:24.839Z,1.07
2023-02-18T16:05:52.881Z,1.30
2023-02-18T16:08:41.023Z,1.03
2023-02-18T16:11:11.481Z,0.80
2023-02-18T16:13:45.286Z,3.23
2023-02-18T16:16:45.321Z,1.60
2023-02-18T16:19:24.467Z,1.43
2023-02-18T16:21:51.970Z,1.63
2023-02-18T16:24:27.245Z,1.63
2023-02-18T16:26:55.281Z,3.10
2023-02-18T16:29:25.038Z,2.00
2023-02-18T16:31:53.104Z,2.53
2023-02-18T16:34:20.662Z,2.73
2023-02-18T16:37:07.202Z,2.10
2023-02-18T16:39:35.709Z,1.40
2023-02-18T16:42:03.252Z,1.57
2023-02-18T16:44:32.861Z,2.83
2023-02-18T16:47:00.385Z,1.30
2023-02-18T16:49:28.394Z,3.97
2023-02-18T16:51:55.885Z,1.50
2023-02-18T16:54:23.432Z,1.40
2023-02-18T16:56:51.080Z,2.37
2023-02-18T16:59:18.763Z,1.80
2023-02-18T17:01:46.805Z,2.27
2023-02-18T17:04:20.001Z,2.10
2023-02-18T17:06:48.642Z,1.13
2023-02-18T17:09:17.216Z,1.63
2023-02-18T17:11:48.141Z,1.30
2023-02-18T17:14:18.038Z,2.10
2023-02-18T17:16:49.514Z,1.73
2023-02-18T17:19:17.347Z,2.23
2023-02-18T17:21:46.968Z,5.33
2023-02-18T17:24:16.895Z,2.30
2023-02-18T17:26:44.801Z,2.30
2023-02-18T17:29:12.440Z,1.73
2023-02-18T17:31:44.591Z,1.90
2023-02-18T17:34:15.034Z,1.87
2023-02-18T17:36:45.606Z,3.37
2023-02-18T17:39:14.394Z,2.47
2023-02-18T17:41:42.591Z,3.43
2023-02-18T17:44:17.841Z,1.33
2023-02-18T17:46:46.521Z,2.13
2023-02-18T17:49:14.177Z,3.67
2023-02-18T17:51:41.781Z,3.73
2023-02-18T17:54:16.228Z,1.97
2023-02-18T17:56:44.233Z,2.47
2023-02-18T17:59:11.729Z,2.30
2023-02-18T18:01:39.641Z,3.73
2023-02-18T18:04:14.372Z,2.17
2023-02-18T18:06:41.932Z,3.77
2023-02-18T18:09:09.454Z,2.30
2023-02-18T18:11:37.105Z,1.40
2023-02-18T18:14:04.594Z,2.23
2023-02-18T18:16:32.117Z,1.93
2023-02-18T18:18:59.667Z,3.60
2023-02-18T18:21:32.731Z,1.93
2023-02-18T18:24:00.312Z,1.83
2023-02-18T18:26:28.150Z,4.20
2023-02-18T18:28:55.676Z,2.40
2023-02-18T18:31:23.289Z,2.63
2023-02-18T18:33:53.421Z,2.87
2023-02-18T18:36:22.135Z,3.40
2023-02-18T18:38:49.674Z,2.03
2023-02-18T18:41:19.024Z,2.83
2023-02-18T18:43:46.864Z,2.03
2023-02-18T18:46:14.511Z,2.13
2023-02-18T18:48:42.036Z,3.43
2023-02-18T18:51:15.961Z,4.13
2023-02-18T18:53:43.740Z,3.93
2023-02-18T18:56:12.469Z,2.20
2023-02-18T18:58:39.961Z,2.60
2023-02-18T19:01:13.624Z,1.93
2023-02-18T19:03:42.423Z,2.20
2023-02-18T19:06:14.194Z,2.17
2023-02-18T19:08:41.777Z,1.47
2023-02-18T19:11:11.686Z,3.60
2023-02-18T19:13:39.540Z,3.07
2023-02-18T19:16:26.836Z,2.00
2023-02-18T19:18:54.470Z,2.10
2023-02-18T19:21:21.939Z,2.23
2023-02-18T19:23:49.408Z,2.30
2023-02-18T19:26:17.455Z,1.90
2023-02-18T19:28:45.502Z,1.60
2023-02-18T19:31:13.502Z,1.63
2023-02-18T19:33:41.357Z,2.50
2023-02-18T19:36:09.941Z,3.50
2023-02-18T19:38:37.445Z,1.80
2023-02-18T19:41:14.465Z,1.80
2023-02-18T19:43:42.919Z,2.00
2023-02-18T19:46:15.223Z,1.93
2023-02-18T19:48:43.261Z,2.67
2023-02-18T19:51:11.358Z,2.60
2023-02-18T19:53:39.076Z,1.80
2023-02-18T19:56:07.545Z,2.07
2023-02-18T19:58:35.530Z,3.20
2023-02-18T20:01:03.030Z,2.87
2023-02-18T20:03:30.743Z,2.60
2023-02-18T20:05:58.234Z,1.90
2023-02-18T20:08:25.933Z,2.33
2023-02-18T20:10:59.830Z,2.70
2023-02-18T20:17:56.977Z,2.57
2023-02-18T20:20:24.859Z,2.60
2023-02-18T20:22:52.420Z,3.87
2023-02-18T20:25:20.210Z,2.43
2023-02-18T20:27:59.731Z,3.77
2023-02-18T20:30:27.816Z,4.67
2023-02-18T20:32:55.279Z,2.67
2023-02-18T20:35:22.975Z,1.70
2023-02-18T20:37:50.449Z,1.87
2023-02-18T20:40:18.095Z,2.80
2023-02-18T20:42:45.504Z,2.37
2023-02-18T20:45:13.032Z,2.13
2023-02-18T20:47:40.451Z,1.70
2023-02-18T20:50:08.035Z,1.70
2023-02-18T20:52:35.536Z,2.53
2023-02-18T20:55:03.002Z,2.20
2023-02-18T20:57:30.430Z,2.80
2023-02-18T20:59:58.541Z,2.53
2023-02-18T21:02:26.239Z,2.87
2023-02-18T21:04:53.705Z,2.03
2023-02-18T21:07:22.516Z,1.20
2023-02-18T21:09:50.153Z,2.77
2023-02-18T21:12:17.561Z,3.23
2023-02-18T21:14:45.230Z,2.80
2023-02-18T21:17:12.700Z,2.27
2023-02-18T21:19:40.195Z,2.90
2023-02-18T21:22:07.645Z,1.63
2023-02-18T21:24:35.090Z,2.20
2023-02-18T21:27:02.546Z,1.93
2023-02-18T21:29:30.128Z,2.00
2023-02-18T21:31:57.650Z,2.10
2023-02-18T21:34:26.096Z,1.80
2023-02-18T21:36:53.553Z,1.83
2023-02-18T21:39:21.018Z,1.50
2023-02-18T21:41:48.446Z,1.30
2023-02-18T21:44:15.971Z,2.47
2023-02-18T21:46:43.452Z,2.53
2023-02-18T21:49:12.550Z,3.90
2023-02-18T21:51:56.906Z,2.47
2023-02-18T21:54:26.145Z,2.77
2023-02-18T21:56:54.052Z,1.60
2023-02-18T21:59:22.264Z,2.67
2023-02-18T22:01:49.835Z,2.77
2023-02-18T22:04:17.554Z,1.27
2023-02-18T22:06:45.492Z,2.70
2023-02-18T22:09:13.806Z,2.03
2023-02-18T22:11:42.445Z,1.40
2023-02-18T22:14:11.127Z,1.73
2023-02-18T22:16:38.677Z,2.57
2023-02-18T22:19:06.706Z,3.40
2023-02-18T22:21:34.176Z,1.73
2023-02-18T22:24:01.664Z,2.70
2023-02-18T22:26:29.089Z,1.47
2023-02-18T22:28:57.630Z,1.43
2023-02-18T22:31:25.782Z,1.83
2023-02-18T22:33:53.800Z,1.90
2023-02-18T22:36:22.543Z,2.13
2023-02-18T22:38:50.417Z,1.93
2023-02-18T22:41:19.082Z,2.57
2023-02-18T22:43:46.983Z,1.90
2023-02-18T22:46:15.888Z,1.63
2023-02-18T22:48:43.520Z,3.77
2023-02-18T22:51:18.649Z,2.40
2023-02-18T22:53:46.456Z,2.00
2023-02-18T22:56:15.187Z,1.90
2023-02-18T22:58:43.726Z,1.10
2023-02-18T23:01:24.646Z,1.30
2023-02-18T23:03:52.856Z,1.70
2023-02-18T23:06:20.889Z,3.73
2023-02-18T23:08:48.956Z,1.67
2023-02-18T23:11:17.942Z,1.53
2023-02-18T23:13:45.750Z,2.67
2023-02-18T23:16:14.490Z,1.43
2023-02-18T23:18:42.481Z,1.57
2023-02-18T23:21:17.289Z,1.17
2023-02-18T23:23:45.904Z,1.30
2023-02-18T23:26:13.420Z,1.33
2023-02-18T23:28:50.060Z,1.77
2023-02-18T23:31:21.370Z,3.33
2023-02-18T23:33:49.947Z,1.60
2023-02-18T23:36:18.615Z,1.63
2023-02-18T23:38:52.980Z,4.30
2023-02-18T23:41:20.917Z,1.50
2023-02-18T23:43:48.791Z,2.13
2023-02-18T23:46:17.157Z,1.30
2023-02-18T23:48:44.765Z,1.80
2023-02-18T23:51:14.523Z,1.67
2023-02-18T23:53:42.245Z,1.73
2023-02-18T23:56:28.403Z,2.60
2023-02-18T23:58:57.497Z,1.53
